Time;durP1;ratioP1;P1;durP2;ratioP2;P2;SDS_P1;SDS_P2;PMS_P1;PMS_P2;Temp;Humidity;BMP_temperature;BMP_pressure;BME280_temperature;BME280_humidity;BME280_pressure;Samples;Min_cycle;Max_cycle;Signal;HPM_P1;HPM_P2
2023/04/17 00:01:38;;;;;;;;;;;;;;;;;;5096087;28;991;-67
2023/04/17 00:04:04;;;;;;;;;;;;;;;;;;5096736;28;887;-67
2023/04/17 00:06:32;;;;;;;;;;;;;;;;;;5095182;28;1175;-68
2023/04/17 00:08:58;;;;;;;;;;;;;;;;;;5096734;28;880;-67
2023/04/17 00:11:23;;;;;;;;;;;;;;;;;;5097019;28;868;-67
2023/04/17 00:13:48;;;;;;;;;;;;;;;;;;5095129;28;1167;-67
2023/04/17 00:16:14;;;;;;;;;;;;;;;;;;5096701;28;1034;-67
2023/04/17 00:18:39;;;;;;;;;;;;;;;;;;5094827;28;1957;-67
2023/04/17 00:21:05;;;;;;;;;;;;;;;;;;5096834;28;859;-68
2023/04/17 00:23:30;;;;;;;;;;;;;;;;;;5096173;28;813;-67
2023/04/17 00:25:55;;;;;;;;;;;;;;;;;;5096332;28;1002;-67
2023/04/17 00:28:20;;;;;;;;;;;;;;;;;;5094740;28;1132;-67
2023/04/17 00:30:46;;;;;;;;;;;;;;;;;;5095145;28;816;-67
2023/04/17 00:33:11;;;;;;;;;;;;;;;;;;5094716;28;820;-67
2023/04/17 00:35:36;;;;;;;;;;;;;;;;;;5094290;28;940;-67
2023/04/17 00:38:01;;;;;;;;;;;;;;;;;;5093308;28;1913;-68
2023/04/17 00:40:27;;;;;;;;;;;;;;;;;;5095023;28;769;-67
2023/04/17 00:42:55;;;;;;;;;;;;;;;;;;5093971;28;829;-67
2023/04/17 00:45:20;;;;;;;;;;;;;;;;;;5094013;28;1227;-68
2023/04/17 00:47:46;;;;;;;;;;;;;;;;;;5094030;28;1010;-67
2023/04/17 00:50:12;;;;;;;;;;;;;;;;;;5095548;28;1211;-68
2023/04/17 00:52:37;;;;;;;;;;;;;;;;;;5097483;28;915;-67
2023/04/17 00:55:04;;;;;;;;;;;;;;;;;;5114247;28;1377;-67
2023/04/17 00:57:29;;;;;;;;;;;;;;;;;;5097385;28;1910;-67
2023/04/17 00:59:55;;;;;;;;;;;;;;;;;;5115289;28;1019;-67
2023/04/17 01:02:20;;;;;;;;;;;;;;;;;;5115522;28;884;-67
2023/04/17 01:04:45;;;;;;;;;;;;;;;;;;5080029;28;1365;-67
2023/04/17 01:07:11;;;;;;;;;;;;;;;;;;5097309;28;1140;-67
2023/04/17 01:09:37;;;;;;;;;;;;;;;;;;5130767;27;1269;-67
2023/04/17 01:12:19;;;;;;;;;;;;;;;;;;5079846;28;1389;-67
2023/04/17 01:14:44;;;;;;;;;;;;;;;;;;5079711;28;1248;-67
2023/04/17 01:17:13;;;;;;;;;;;;;;;;;;5114636;28;1961;-67
2023/04/17 01:19:39;;;;;;;;;;;;;;;;;;5114729;28;856;-67
2023/04/17 01:22:04;;;;;;;;;;;;;;;;;;5115110;28;856;-67
2023/04/17 01:24:29;;;;;;;;;;;;;;;;;;5115343;28;1046;-67
2023/04/17 01:26:55;;;;;;;;;;;;;;;;;;5114721;28;931;-67
2023/04/17 01:29:20;;;;;;;;;;;;;;;;;;5115062;28;820;-67
2023/04/17 01:31:45;;;;;;;;;;;;;;;;;;5096354;28;900;-67
2023/04/17 01:34:10;;;;;;;;;;;;;;;;;;5096795;28;1179;-67
2023/04/17 01:36:36;;;;;;;;;;;;;;;;;;5114921;28;829;-67
2023/04/17 01:39:01;;;;;;;;;;;;;;;;;;5079407;28;1890;-67
2023/04/17 01:41:26;;;;;;;;;;;;;;;;;;5115498;28;884;-68
2023/04/17 01:43:52;;;;;;;;;;;;;;;;;;5096571;28;1176;-68
2023/04/17 01:46:17;;;;;;;;;;;;;;;;;;5096884;28;885;-68
2023/04/17 01:48:42;;;;;;;;;;;;;;;;;;5130905;27;1159;-67
2023/04/17 01:51:08;;;;;;;;;;;;;;;;;;5114085;28;1176;-68
2023/04/17 01:53:33;;;;;;;;;;;;;;;;;;5115036;28;930;-68
2023/04/17 01:56:01;;;;;;;;;;;;;;;;;;5114947;28;840;-68
2023/04/17 01:58:27;;;;;;;;;;;;;;;;;;5115293;28;1913;-68
2023/04/17 02:00:52;;;;;;;;;;;;;;;;;;5114737;28;824;-68
2023/04/17 02:03:18;;;;;;;;;;;;;;;;;;5096561;28;829;-68
2023/04/17 02:05:46;;;;;;;;;;;;;;;;;;5096306;28;1385;-68
2023/04/17 02:08:12;;;;;;;;;;;;;;;;;;5114425;28;837;-68
2023/04/17 02:10:38;;;;;;;;;;;;;;;;;;5114533;28;828;-68
2023/04/17 02:13:03;;;;;;;;;;;;;;;;;;5114233;28;908;-68
2023/04/17 02:15:28;;;;;;;;;;;;;;;;;;5095965;28;1196;-68
2023/04/17 02:17:53;;;;;;;;;;;;;;;;;;5095276;28;1968;-67
2023/04/17 02:20:19;;;;;;;;;;;;;;;;;;5078639;28;1150;-68
2023/04/17 02:22:44;;;;;;;;;;;;;;;;;;5074687;28;1232;-67
2023/04/17 02:25:10;;;;;;;;;;;;;;;;;;5091937;28;841;-68
2023/04/17 02:27:35;;;;;;;;;;;;;;;;;;5091549;28;1243;-68
2023/04/17 02:30:00;;;;;;;;;;;;;;;;;;5075063;28;1183;-68
2023/04/17 02:32:27;;;;;;;;;;;;;;;;;;5093625;28;950;-68
2023/04/17 02:34:53;;;;;;;;;;;;;;;;;;5092595;28;783;-68
2023/04/17 02:37:18;;;;;;;;;;;;;;;;;;5092263;28;1906;-67
2023/04/17 02:39:43;;;;;;;;;;;;;;;;;;5093320;28;1058;-68
2023/04/17 02:42:11;;;;;;;;;;;;;;;;;;5093260;28;844;-67
2023/04/17 02:44:37;;;;;;;;;;;;;;;;;;5093418;28;857;-68
2023/04/17 02:47:02;;;;;;;;;;;;;;;;;;5091679;28;920;-67
2023/04/17 02:49:27;;;;;;;;;;;;;;;;;;5092975;28;837;-66
2023/04/17 02:51:53;;;;;;;;;;;;;;;;;;5091425;28;1307;-67
2023/04/17 02:54:18;;;;;;;;;;;;;;;;;;5093067;28;832;-66
2023/04/17 02:56:43;;;;;;;;;;;;;;;;;;5093548;28;907;-67
2023/04/17 02:59:08;;;;;;;;;;;;;;;;;;5091308;28;1970;-67
2023/04/17 03:01:36;;;;;;;;;;;;;;;;;;5092284;28;654;-67
2023/04/17 03:04:01;;;;;;;;;;;;;;;;;;5092440;28;844;-67
2023/04/17 03:06:27;;;;;;;;;;;;;;;;;;5093407;28;979;-67
2023/04/17 03:08:52;;;;;;;;;;;;;;;;;;5092930;28;909;-67
2023/04/17 03:11:17;;;;;;;;;;;;;;;;;;5075067;28;907;-67
2023/04/17 03:13:43;;;;;;;;;;;;;;;;;;5091769;28;1231;-67
2023/04/17 03:16:08;;;;;;;;;;;;;;;;;;5091369;28;1282;-67
2023/04/17 03:18:34;;;;;;;;;;;;;;;;;;5091634;28;1913;-67
2023/04/17 03:21:00;;;;;;;;;;;;;;;;;;5092753;28;907;-67
2023/04/17 03:23:25;;;;;;;;;;;;;;;;;;5093409;28;872;-66
2023/04/17 03:25:50;;;;;;;;;;;;;;;;;;5091718;28;1294;-67
2023/04/17 03:28:16;;;;;;;;;;;;;;;;;;5092667;28;982;-67
2023/04/17 03:30:41;;;;;;;;;;;;;;;;;;5075424;28;834;-67
2023/04/17 03:33:06;;;;;;;;;;;;;;;;;;5092910;28;872;-68
2023/04/17 03:35:32;;;;;;;;;;;;;;;;;;5075212;28;857;-67
2023/04/17 03:37:57;;;;;;;;;;;;;;;;;;5092051;28;1901;-67
2023/04/17 03:40:22;;;;;;;;;;;;;;;;;;5091669;28;1195;-67
2023/04/17 03:42:48;;;;;;;;;;;;;;;;;;5091292;28;1163;-68
2023/04/17 03:45:13;;;;;;;;;;;;;;;;;;5091032;28;1187;-67
2023/04/17 03:47:39;;;;;;;;;;;;;;;;;;5091295;28;1319;-67
2023/04/17 03:50:05;;;;;;;;;;;;;;;;;;5090653;28;1283;-67
2023/04/17 03:52:30;;;;;;;;;;;;;;;;;;5092803;28;903;-67
2023/04/17 03:54:55;;;;;;;;;;;;;;;;;;5091302;28;1191;-67
2023/04/17 03:57:20;;;;;;;;;;;;;;;;;;5074694;28;1973;-67
2023/04/17 03:59:46;;;;;;;;;;;;;;;;;;5092427;28;935;-67
2023/04/17 04:02:11;;;;;;;;;;;;;;;;;;5074572;28;967;-67
2023/04/17 04:04:36;;;;;;;;;;;;;;;;;;5057982;28;1326;-67
2023/04/17 04:07:02;;;;;;;;;;;;;;;;;;5091160;28;1188;-67
2023/04/17 04:09:27;;;;;;;;;;;;;;;;;;5074645;28;1235;-68
2023/04/17 04:11:53;;;;;;;;;;;;;;;;;;5092785;28;907;-67
2023/04/17 04:14:18;;;;;;;;;;;;;;;;;;5095033;28;824;-67
2023/04/17 04:16:43;;;;;;;;;;;;;;;;;;5096487;28;899;-67
2023/04/17 04:19:09;;;;;;;;;;;;;;;;;;5095681;28;2256;-67
2023/04/17 04:21:34;;;;;;;;;;;;;;;;;;5096027;28;856;-67
2023/04/17 04:23:59;;;;;;;;;;;;;;;;;;5095834;28;1091;-67
2023/04/17 04:26:26;;;;;;;;;;;;;;;;;;5078019;28;912;-68
2023/04/17 04:28:51;;;;;;;;;;;;;;;;;;5095824;28;1101;-67
2023/04/17 04:31:19;;;;;;;;;;;;;;;;;;5095819;28;951;-67
2023/04/17 04:33:44;;;;;;;;;;;;;;;;;;5096194;28;987;-67
2023/04/17 04:36:12;;;;;;;;;;;;;;;;;;5095381;28;813;-67
2023/04/17 04:38:38;;;;;;;;;;;;;;;;;;5095969;28;1918;-67
2023/04/17 04:41:08;;;;;;;;;;;;;;;;;;5093878;28;1283;-66
2023/04/17 04:43:34;;;;;;;;;;;;;;;;;;5094760;28;1330;-67
2023/04/17 04:45:59;;;;;;;;;;;;;;;;;;5095894;28;1001;-67
2023/04/17 04:48:24;;;;;;;;;;;;;;;;;;5077701;28;953;-66
2023/04/17 04:50:50;;;;;;;;;;;;;;;;;;5087528;28;1294;-66
2023/04/17 04:53:16;;;;;;;;;;;;;;;;;;5074005;28;1117;-69
2023/04/17 04:55:41;;;;;;;;;;;;;;;;;;5076089;28;833;-66
2023/04/17 04:58:06;;;;;;;;;;;;;;;;;;5075007;28;1934;-67
2023/04/17 05:00:31;;;;;;;;;;;;;;;;;;5074965;28;840;-66
2023/04/17 05:02:57;;;;;;;;;;;;;;;;;;5074787;28;813;-67
2023/04/17 05:05:22;;;;;;;;;;;;;;;;;;5075195;28;825;-67
2023/04/17 05:07:47;;;;;;;;;;;;;;;;;;5073834;28;1356;-66
2023/04/17 05:10:13;;;;;;;;;;;;;;;;;;5073291;28;1274;-66
2023/04/17 05:12:39;;;;;;;;;;;;;;;;;;5057028;28;1255;-67
2023/04/17 05:15:05;;;;;;;;;;;;;;;;;;5072972;28;1358;-67
2023/04/17 05:17:30;;;;;;;;;;;;;;;;;;5073479;28;1914;-66
2023/04/17 05:19:55;;;;;;;;;;;;;;;;;;5074549;28;852;-66
2023/04/17 05:22:21;;;;;;;;;;;;;;;;;;5073405;28;1224;-66
2023/04/17 05:24:46;;;;;;;;;;;;;;;;;;5087288;28;1286;-67
2023/04/17 05:27:11;;;;;;;;;;;;;;;;;;5075891;28;1287;-68
2023/04/17 05:29:37;;;;;;;;;;;;;;;;;;5074443;28;896;-67
2023/04/17 05:32:02;;;;;;;;;;;;;;;;;;5075401;28;888;-68
2023/04/17 05:34:27;;;;;;;;;;;;;;;;;;5075653;28;861;-67
2023/04/17 05:36:53;;;;;;;;;;;;;;;;;;5058202;28;1047;-68
2023/04/17 05:39:18;;;;;;;;;;;;;;;;;;5075861;28;1971;-66
2023/04/17 05:41:43;;;;;;;;;;;;;;;;;;5057794;28;1276;-66
2023/04/17 05:44:08;;;;;;;;;;;;;;;;;;5057122;28;1306;-67
2023/04/17 05:46:34;;;;;;;;;;;;;;;;;;5074866;28;995;-66
2023/04/17 05:48:59;;;;;;;;;;;;;;;;;;5057234;28;1370;-66
2023/04/17 05:51:25;;;;;;;;;;;;;;;;;;5074975;28;1050;-67
2023/04/17 05:53:50;;;;;;;;;;;;;;;;;;5057763;28;836;-66
2023/04/17 05:56:16;;;;;;;;;;;;;;;;;;5056450;28;1196;-66
2023/04/17 05:58:41;;;;;;;;;;;;;;;;;;5057375;28;1977;-66
2023/04/17 06:01:06;;;;;;;;;;;;;;;;;;5056993;28;1381;-67
2023/04/17 06:03:32;;;;;;;;;;;;;;;;;;5057216;28;1152;-67
2023/04/17 06:05:57;;;;;;;;;;;;;;;;;;5074723;28;895;-66
2023/04/17 06:08:23;;;;;;;;;;;;;;;;;;5074772;28;939;-66
2023/04/17 06:10:49;;;;;;;;;;;;;;;;;;5056957;28;1007;-66
2023/04/17 06:13:15;;;;;;;;;;;;;;;;;;5056911;28;1301;-66
2023/04/17 06:15:40;;;;;;;;;;;;;;;;;;5056920;28;1319;-66
2023/04/17 06:18:06;;;;;;;;;;;;;;;;;;5056314;28;1902;-66
2023/04/17 06:20:31;;;;;;;;;;;;;;;;;;5073454;28;982;-66
2023/04/17 06:22:56;;;;;;;;;;;;;;;;;;5073395;28;903;-66
2023/04/17 06:25:21;;;;;;;;;;;;;;;;;;5055308;28;1310;-67
2023/04/17 06:27:47;;;;;;;;;;;;;;;;;;5073262;28;1046;-66
2023/04/17 06:30:12;;;;;;;;;;;;;;;;;;5072542;28;837;-67
2023/04/17 06:32:42;;;;;;;;;;;;;;;;;;5055164;28;959;-67
2023/04/17 06:35:07;;;;;;;;;;;;;;;;;;5072329;28;899;-66
2023/04/17 06:37:32;;;;;;;;;;;;;;;;;;5038140;28;1910;-66
2023/04/17 06:39:58;;;;;;;;;;;;;;;;;;5054569;28;1199;-66
2023/04/17 06:42:23;;;;;;;;;;;;;;;;;;5037485;28;1509;-67
2023/04/17 06:44:49;;;;;;;;;;;;;;;;;;5054939;28;1471;-66
2023/04/17 06:47:14;;;;;;;;;;;;;;;;;;5072692;28;1028;-66
2023/04/17 06:49:39;;;;;;;;;;;;;;;;;;5073138;28;911;-66
2023/04/17 06:52:05;;;;;;;;;;;;;;;;;;5071037;28;1207;-66
2023/04/17 06:54:30;;;;;;;;;;;;;;;;;;5092415;28;883;-66
2023/04/17 06:56:55;;;;;;;;;;;;;;;;;;5074072;28;1400;-67
2023/04/17 06:59:20;;;;;;;;;;;;;;;;;;5073541;28;1969;-66
2023/04/17 07:01:46;;;;;;;;;;;;;;;;;;5092138;28;825;-67
2023/04/17 07:04:11;;;;;;;;;;;;;;;;;;5074036;28;1415;-67
2023/04/17 07:06:38;;;;;;;;;;;;;;;;;;5074565;28;1623;-66
2023/04/17 07:09:03;;;;;;;;;;;;;;;;;;5075148;28;778;-66
2023/04/17 07:11:29;;;;;;;;;;;;;;;;;;5074552;28;1239;-66
2023/04/17 07:13:54;;;;;;;;;;;;;;;;;;5092612;28;991;-67
2023/04/17 07:16:21;;;;;;;;;;;;;;;;;;5092599;28;907;-67
2023/04/17 07:18:47;;;;;;;;;;;;;;;;;;5092801;28;1897;-67
2023/04/17 07:21:12;;;;;;;;;;;;;;;;;;5092626;28;900;-66
2023/04/17 07:23:37;;;;;;;;;;;;;;;;;;5092981;28;911;-66
2023/04/17 07:26:02;;;;;;;;;;;;;;;;;;5092503;28;880;-66
2023/04/17 07:28:28;;;;;;;;;;;;;;;;;;5092912;28;825;-66
2023/04/17 07:30:53;;;;;;;;;;;;;;;;;;5074428;28;1207;-66
2023/04/17 07:33:19;;;;;;;;;;;;;;;;;;5092311;28;836;-67
2023/04/17 07:35:44;;;;;;;;;;;;;;;;;;5093028;28;1014;-66
2023/04/17 07:38:10;;;;;;;;;;;;;;;;;;5057883;28;1910;-66
2023/04/17 07:40:35;;;;;;;;;;;;;;;;;;5092343;28;853;-66
2023/04/17 07:43:01;;;;;;;;;;;;;;;;;;5092386;28;871;-66
2023/04/17 07:45:27;;;;;;;;;;;;;;;;;;5092697;28;911;-65
2023/04/17 07:47:53;;;;;;;;;;;;;;;;;;5093481;28;961;-65
2023/04/17 07:50:18;;;;;;;;;;;;;;;;;;5093783;28;1322;-65
2023/04/17 07:52:43;;;;;;;;;;;;;;;;;;5041376;28;1167;-65
2023/04/17 07:55:08;;;;;;;;;;;;;;;;;;5057995;28;840;-65
2023/04/17 07:57:34;;;;;;;;;;;;;;;;;;5057987;28;1910;-65
2023/04/17 07:59:59;;;;;;;;;;;;;;;;;;5075636;28;1019;-65
2023/04/17 08:02:25;;;;;;;;;;;;;;;;;;5075725;28;864;-65
2023/04/17 08:04:51;;;;;;;;;;;;;;;;;;5057865;28;901;-65
2023/04/17 08:07:17;;;;;;;;;;;;;;;;;;5057068;28;1404;-66
2023/04/17 08:09:42;;;;;;;;;;;;;;;;;;5064024;28;1200;-66
2023/04/17 08:12:07;;;;;;;;;;;;;;;;;;5077278;28;1183;-66
2023/04/17 08:14:33;;;;;;;;;;;;;;;;;;5095591;28;939;-66
2023/04/17 08:16:58;;;;;;;;;;;;;;;;;;5077894;28;1326;-65
2023/04/17 08:19:23;;;;;;;;;;;;;;;;;;5077387;28;1898;-66
2023/04/17 08:21:49;;;;;;;;;;;;;;;;;;5096054;28;820;-66
2023/04/17 08:24:18;;;;;;;;;;;;;;;;;;5095718;28;825;-66
2023/04/17 08:26:43;;;;;;;;;;;;;;;;;;5095699;28;888;-66
2023/04/17 08:29:09;;;;;;;;;;;;;;;;;;5095811;28;939;-65
2023/04/17 08:31:38;;;;;;;;;;;;;;;;;;5057689;28;1344;-66
2023/04/17 08:34:04;;;;;;;;;;;;;;;;;;5056353;28;1219;-66
2023/04/17 08:36:30;;;;;;;;;;;;;;;;;;5088733;28;1192;-65
2023/04/17 08:38:55;;;;;;;;;;;;;;;;;;5058438;28;1901;-65
2023/04/17 08:41:23;;;;;;;;;;;;;;;;;;5056720;28;1293;-66
2023/04/17 08:43:49;;;;;;;;;;;;;;;;;;5075371;28;816;-65
2023/04/17 08:46:15;;;;;;;;;;;;;;;;;;5075109;28;988;-67
2023/04/17 08:48:40;;;;;;;;;;;;;;;;;;5075308;28;821;-66
2023/04/17 08:51:06;;;;;;;;;;;;;;;;;;5083972;28;1081;-66
2023/04/17 08:53:32;;;;;;;;;;;;;;;;;;5095469;28;1042;-67
2023/04/17 08:56:02;;;;;;;;;;;;;;;;;;5077457;28;885;-66
2023/04/17 08:58:31;;;;;;;;;;;;;;;;;;5095313;28;1898;-67
2023/04/17 09:01:06;;;;;;;;;;;;;;;;;;5094337;28;845;-67
2023/04/17 09:03:38;;;;;;;;;;;;;;;;;;5095897;28;1005;-67
2023/04/17 09:06:04;;;;;;;;;;;;;;;;;;5077332;28;1216;-67
2023/04/17 09:08:29;;;;;;;;;;;;;;;;;;5093463;28;865;-67
2023/04/17 09:10:54;;;;;;;;;;;;;;;;;;5075379;28;1175;-67
2023/04/17 09:13:24;;;;;;;;;;;;;;;;;;5093341;28;1074;-67
2023/04/17 09:16:05;;;;;;;;;;;;;;;;;;5075071;28;978;-67
2023/04/17 09:18:31;;;;;;;;;;;;;;;;;;5092887;28;1902;-67
2023/04/17 09:20:58;;;;;;;;;;;;;;;;;;5074417;28;1255;-67
2023/04/17 09:23:24;;;;;;;;;;;;;;;;;;5074836;28;1432;-65
2023/04/17 09:26:09;;;;;;;;;;;;;;;;;;5094404;28;884;-67
2023/04/17 09:28:34;;;;;;;;;;;;;;;;;;5076233;28;1331;-67
2023/04/17 09:31:04;;;;;;;;;;;;;;;;;;5093790;28;872;-67
2023/04/17 09:33:30;;;;;;;;;;;;;;;;;;5094163;28;928;-67
2023/04/17 09:35:55;;;;;;;;;;;;;;;;;;5094033;28;837;-67
2023/04/17 09:38:35;;;;;;;;;;;;;;;;;;5058833;28;1894;-67
2023/04/17 09:41:01;;;;;;;;;;;;;;;;;;5094314;28;848;-67
2023/04/17 09:43:39;;;;;;;;;;;;;;;;;;5075976;28;1269;-67
2023/04/17 09:46:04;;;;;;;;;;;;;;;;;;5094078;28;896;-67
2023/04/17 09:48:29;;;;;;;;;;;;;;;;;;5093733;28;900;-66
2023/04/17 09:50:55;;;;;;;;;;;;;;;;;;5093923;28;1223;-67
2023/04/17 09:53:21;;;;;;;;;;;;;;;;;;5075605;28;1318;-66
2023/04/17 09:55:48;;;;;;;;;;;;;;;;;;5093723;28;978;-67
2023/04/17 09:58:13;;;;;;;;;;;;;;;;;;5094054;28;1901;-67
2023/04/17 10:00:40;;;;;;;;;;;;;;;;;;5093738;28;888;-67
2023/04/17 10:03:05;;;;;;;;;;;;;;;;;;5093537;28;880;-66
2023/04/17 10:05:31;;;;;;;;;;;;;;;;;;5093464;28;832;-67
2023/04/17 10:07:57;;;;;;;;;;;;;;;;;;5058847;28;1283;-67
2023/04/17 10:10:22;;;;;;;;;;;;;;;;;;5093783;28;915;-67
2023/04/17 10:12:48;;;;;;;;;;;;;;;;;;5093587;28;900;-67
2023/04/17 10:15:14;;;;;;;;;;;;;;;;;;5093787;28;944;-67
2023/04/17 10:17:40;;;;;;;;;;;;;;;;;;5058807;28;1902;-67
2023/04/17 10:20:14;;;;;;;;;;;;;;;;;;5093611;28;963;-67
2023/04/17 10:22:40;;;;;;;;;;;;;;;;;;5094038;28;828;-67
2023/04/17 10:25:14;;;;;;;;;;;;;;;;;;5094291;28;860;-67
2023/04/17 10:27:39;;;;;;;;;;;;;;;;;;5093647;28;837;-67
2023/04/17 10:30:06;;;;;;;;;;;;;;;;;;5093974;28;848;-67
2023/04/17 10:32:32;;;;;;;;;;;;;;;;;;5106109;27;1187;-66
2023/04/17 10:34:59;;;;;;;;;;;;;;;;;;5113272;27;1167;-67
2023/04/17 10:37:43;;;;;;;;;;;;;;;;;;5114689;27;1968;-67
2023/04/17 10:40:09;;;;;;;;;;;;;;;;;;5116347;27;1186;-67
2023/04/17 10:42:34;;;;;;;;;;;;;;;;;;5134052;27;824;-67
2023/04/17 10:45:03;;;;;;;;;;;;;;;;;;5134671;27;892;-66
2023/04/17 10:47:31;;;;;;;;;;;;;;;;;;5133933;27;1223;-67
2023/04/17 10:49:59;;;;;;;;;;;;;;;;;;5134756;27;876;-67
2023/04/17 10:52:31;;;;;;;;;;;;;;;;;;5116205;27;1500;-66
2023/04/17 10:55:03;;;;;;;;;;;;;;;;;;5134199;27;843;-66
2023/04/17 10:57:47;;;;;;;;;;;;;;;;;;5115775;27;1910;-67
2023/04/17 11:00:12;;;;;;;;;;;;;;;;;;5134065;27;758;-67
2023/04/17 11:02:38;;;;;;;;;;;;;;;;;;5133449;27;808;-67
2023/04/17 11:05:06;;;;;;;;;;;;;;;;;;5115286;27;821;-66
2023/04/17 11:07:34;;;;;;;;;;;;;;;;;;5133141;27;883;-67
2023/04/17 11:10:00;;;;;;;;;;;;;;;;;;5133621;27;836;-67
2023/04/17 11:12:26;;;;;;;;;;;;;;;;;;5134078;28;825;-67
2023/04/17 11:14:51;;;;;;;;;;;;;;;;;;5133504;28;828;-66
2023/04/17 11:17:16;;;;;;;;;;;;;;;;;;5133822;28;1901;-66
2023/04/17 11:19:43;;;;;;;;;;;;;;;;;;5115356;28;1175;-67
2023/04/17 11:22:09;;;;;;;;;;;;;;;;;;5113745;27;1297;-67
2023/04/17 11:24:34;;;;;;;;;;;;;;;;;;5137185;27;1014;-67
2023/04/17 11:27:00;;;;;;;;;;;;;;;;;;5138005;27;833;-66
2023/04/17 11:29:26;;;;;;;;;;;;;;;;;;5119827;27;1170;-66
2023/04/17 11:31:53;;;;;;;;;;;;;;;;;;5137803;27;910;-67
2023/04/17 11:34:18;;;;;;;;;;;;;;;;;;5138824;27;891;-67
2023/04/17 11:36:50;;;;;;;;;;;;;;;;;;5102455;27;1369;-66
2023/04/17 11:39:16;;;;;;;;;;;;;;;;;;5138084;27;1889;-67
2023/04/17 11:41:43;;;;;;;;;;;;;;;;;;5138034;27;837;-65
2023/04/17 11:44:09;;;;;;;;;;;;;;;;;;5137414;27;966;-67
2023/04/17 11:46:35;;;;;;;;;;;;;;;;;;5137725;27;1041;-67
2023/04/17 11:49:04;;;;;;;;;;;;;;;;;;5137545;27;848;-67
2023/04/17 11:51:30;;;;;;;;;;;;;;;;;;5119247;27;1147;-67
2023/04/17 11:53:56;;;;;;;;;;;;;;;;;;5119338;27;1222;-66
2023/04/17 11:56:26;;;;;;;;;;;;;;;;;;5119029;27;1298;-67
2023/04/17 11:58:52;;;;;;;;;;;;;;;;;;5118938;27;1926;-67
2023/04/17 12:01:18;;;;;;;;;;;;;;;;;;5137584;27;781;-66
2023/04/17 12:03:43;;;;;;;;;;;;;;;;;;5137456;27;840;-67
2023/04/17 12:06:10;;;;;;;;;;;;;;;;;;5118691;27;1416;-67
2023/04/17 12:08:45;;;;;;;;;;;;;;;;;;5137473;27;862;-67
2023/04/17 12:11:14;;;;;;;;;;;;;;;;;;5137376;27;828;-67
2023/04/17 12:13:40;;;;;;;;;;;;;;;;;;5137156;27;836;-67
2023/04/17 12:16:05;;;;;;;;;;;;;;;;;;5118364;27;1198;-67
2023/04/17 12:18:30;;;;;;;;;;;;;;;;;;5137213;27;1894;-67
2023/04/17 12:20:56;;;;;;;;;;;;;;;;;;5137007;27;936;-67
2023/04/17 12:23:21;;;;;;;;;;;;;;;;;;5118435;27;571;-67
2023/04/17 12:25:46;;;;;;;;;;;;;;;;;;5136730;27;1053;-67
2023/04/17 12:28:11;;;;;;;;;;;;;;;;;;5137178;27;879;-67
2023/04/17 12:30:38;;;;;;;;;;;;;;;;;;5118561;27;1158;-67
2023/04/17 12:33:05;;;;;;;;;;;;;;;;;;5101290;27;1088;-67
2023/04/17 12:35:30;;;;;;;;;;;;;;;;;;5118746;27;895;-67
2023/04/17 12:37:56;;;;;;;;;;;;;;;;;;5136678;27;1893;-66
2023/04/17 12:40:22;;;;;;;;;;;;;;;;;;5136474;27;864;-66
2023/04/17 12:42:48;;;;;;;;;;;;;;;;;;5118131;27;1175;-66
2023/04/17 12:45:16;;;;;;;;;;;;;;;;;;5136333;27;828;-66
2023/04/17 12:47:42;;;;;;;;;;;;;;;;;;5136625;27;913;-67
2023/04/17 12:50:07;;;;;;;;;;;;;;;;;;5136091;27;1187;-67
2023/04/17 12:52:33;;;;;;;;;;;;;;;;;;5135372;27;1202;-66
2023/04/17 12:54:58;;;;;;;;;;;;;;;;;;5136137;27;836;-67
2023/04/17 12:57:25;;;;;;;;;;;;;;;;;;5117711;27;1983;-66
2023/04/17 12:59:50;;;;;;;;;;;;;;;;;;5135460;27;840;-67
2023/04/17 13:02:17;;;;;;;;;;;;;;;;;;5135959;27;880;-67
2023/04/17 13:04:43;;;;;;;;;;;;;;;;;;5136113;27;848;-67
2023/04/17 13:07:08;;;;;;;;;;;;;;;;;;5117180;27;903;-67
2023/04/17 13:09:33;;;;;;;;;;;;;;;;;;5135998;27;864;-67
2023/04/17 13:11:58;;;;;;;;;;;;;;;;;;5136045;27;837;-67
2023/04/17 13:14:24;;;;;;;;;;;;;;;;;;5136082;27;962;-67
2023/04/17 13:16:49;;;;;;;;;;;;;;;;;;5117424;27;1405;-67
2023/04/17 13:19:15;;;;;;;;;;;;;;;;;;5117539;27;1964;-67
2023/04/17 13:21:40;;;;;;;;;;;;;;;;;;5117843;27;890;-67
2023/04/17 13:24:06;;;;;;;;;;;;;;;;;;5117128;27;1137;-67
2023/04/17 13:26:31;;;;;;;;;;;;;;;;;;5135775;27;895;-67
2023/04/17 13:28:56;;;;;;;;;;;;;;;;;;5117355;27;1014;-67
2023/04/17 13:31:24;;;;;;;;;;;;;;;;;;5117537;27;1249;-68
2023/04/17 13:33:49;;;;;;;;;;;;;;;;;;5116438;27;1218;-67
2023/04/17 13:36:15;;;;;;;;;;;;;;;;;;5100056;27;1611;-67
2023/04/17 13:38:41;;;;;;;;;;;;;;;;;;5100138;27;1906;-68
2023/04/17 13:41:06;;;;;;;;;;;;;;;;;;5116129;27;884;-67
2023/04/17 13:43:31;;;;;;;;;;;;;;;;;;5117011;27;1308;-67
2023/04/17 13:45:56;;;;;;;;;;;;;;;;;;5115820;27;992;-67
2023/04/17 13:48:22;;;;;;;;;;;;;;;;;;5135495;27;895;-67
2023/04/17 13:50:47;;;;;;;;;;;;;;;;;;5116671;27;1242;-67
2023/04/17 13:53:12;;;;;;;;;;;;;;;;;;5099729;27;1405;-67
2023/04/17 13:55:38;;;;;;;;;;;;;;;;;;5135283;27;871;-67
2023/04/17 13:58:03;;;;;;;;;;;;;;;;;;5134959;27;1964;-67
2023/04/17 14:00:28;;;;;;;;;;;;;;;;;;5099668;27;852;-67
2023/04/17 14:02:54;;;;;;;;;;;;;;;;;;5116448;27;1310;-67
2023/04/17 14:05:19;;;;;;;;;;;;;;;;;;5134571;27;876;-67
2023/04/17 14:07:44;;;;;;;;;;;;;;;;;;5116826;27;892;-68
2023/04/17 14:10:09;;;;;;;;;;;;;;;;;;5135079;27;887;-67
2023/04/17 14:12:35;;;;;;;;;;;;;;;;;;5116846;27;1179;-67
2023/04/17 14:15:01;;;;;;;;;;;;;;;;;;5134560;27;891;-67
2023/04/17 14:17:26;;;;;;;;;;;;;;;;;;5134778;27;1924;-67
2023/04/17 14:19:51;;;;;;;;;;;;;;;;;;5115444;27;1207;-67
2023/04/17 14:22:17;;;;;;;;;;;;;;;;;;5134783;27;817;-67
2023/04/17 14:24:42;;;;;;;;;;;;;;;;;;5134996;27;856;-67
2023/04/17 14:27:08;;;;;;;;;;;;;;;;;;5134192;27;911;-67
2023/04/17 14:29:33;;;;;;;;;;;;;;;;;;5134397;27;856;-66
2023/04/17 14:31:58;;;;;;;;;;;;;;;;;;5133871;27;987;-66
2023/04/17 14:34:23;;;;;;;;;;;;;;;;;;5134701;27;879;-67
2023/04/17 14:36:49;;;;;;;;;;;;;;;;;;5134095;27;852;-67
2023/04/17 14:39:14;;;;;;;;;;;;;;;;;;5134440;27;1964;-67
2023/04/17 14:41:39;;;;;;;;;;;;;;;;;;5116146;27;1242;-67
2023/04/17 14:44:05;;;;;;;;;;;;;;;;;;5098404;27;1337;-67
2023/04/17 14:46:30;;;;;;;;;;;;;;;;;;5134595;27;927;-67
2023/04/17 14:48:56;;;;;;;;;;;;;;;;;;5134351;27;785;-66
2023/04/17 14:51:23;;;;;;;;;;;;;;;;;;5115572;27;1261;-67
2023/04/17 14:53:49;;;;;;;;;;;;;;;;;;5134314;27;895;-67
2023/04/17 14:56:14;;;;;;;;;;;;;;;;;;5133874;27;884;-67
2023/04/17 14:58:40;;;;;;;;;;;;;;;;;;5114849;27;1981;-67
2023/04/17 15:01:05;;;;;;;;;;;;;;;;;;5133331;27;895;-67
2023/04/17 15:03:30;;;;;;;;;;;;;;;;;;5133812;27;938;-67
2023/04/17 15:05:57;;;;;;;;;;;;;;;;;;5115122;27;1250;-67
2023/04/17 15:08:23;;;;;;;;;;;;;;;;;;5098877;27;1296;-67
2023/04/17 15:10:48;;;;;;;;;;;;;;;;;;5115701;28;1202;-67
2023/04/17 15:13:13;;;;;;;;;;;;;;;;;;5098013;28;1256;-67
2023/04/17 15:15:39;;;;;;;;;;;;;;;;;;5134036;28;871;-67
2023/04/17 15:18:04;;;;;;;;;;;;;;;;;;5133781;28;1909;-67
2023/04/17 15:20:29;;;;;;;;;;;;;;;;;;5134171;28;847;-67
2023/04/17 15:22:55;;;;;;;;;;;;;;;;;;5133426;28;911;-67
2023/04/17 15:25:23;;;;;;;;;;;;;;;;;;5114855;28;1218;-67
2023/04/17 15:27:49;;;;;;;;;;;;;;;;;;5133644;28;887;-67
2023/04/17 15:30:15;;;;;;;;;;;;;;;;;;5133288;28;991;-67
2023/04/17 15:32:40;;;;;;;;;;;;;;;;;;5115464;28;1359;-67
2023/04/17 15:35:06;;;;;;;;;;;;;;;;;;5115241;28;1409;-67
2023/04/17 15:37:31;;;;;;;;;;;;;;;;;;5133602;28;1902;-67
2023/04/17 15:39:56;;;;;;;;;;;;;;;;;;5098410;28;1322;-67
2023/04/17 15:42:22;;;;;;;;;;;;;;;;;;5115519;28;863;-67
2023/04/17 15:44:47;;;;;;;;;;;;;;;;;;5133703;28;1009;-67
2023/04/17 15:47:13;;;;;;;;;;;;;;;;;;5133602;28;1057;-67
2023/04/17 15:49:38;;;;;;;;;;;;;;;;;;5133835;28;923;-67
2023/04/17 15:52:04;;;;;;;;;;;;;;;;;;5114890;28;1454;-67
2023/04/17 15:54:30;;;;;;;;;;;;;;;;;;5116276;28;762;-67
2023/04/17 15:56:55;;;;;;;;;;;;;;;;;;5115601;28;1244;-67
2023/04/17 15:59:21;;;;;;;;;;;;;;;;;;5133906;28;1898;-67
2023/04/17 16:01:47;;;;;;;;;;;;;;;;;;5134610;28;1208;-67
2023/04/17 16:04:12;;;;;;;;;;;;;;;;;;5134244;28;840;-67
2023/04/17 16:06:37;;;;;;;;;;;;;;;;;;5099197;28;1451;-67
2023/04/17 16:09:02;;;;;;;;;;;;;;;;;;5134469;27;796;-67
2023/04/17 16:11:28;;;;;;;;;;;;;;;;;;5119530;27;859;-67
2023/04/17 16:13:53;;;;;;;;;;;;;;;;;;5137893;27;1069;-67
2023/04/17 16:16:18;;;;;;;;;;;;;;;;;;5137556;27;1022;-67
2023/04/17 16:18:47;;;;;;;;;;;;;;;;;;5119147;27;1943;-67
2023/04/17 16:21:13;;;;;;;;;;;;;;;;;;5137986;27;907;-67
2023/04/17 16:23:38;;;;;;;;;;;;;;;;;;5119619;27;1341;-68
2023/04/17 16:26:07;;;;;;;;;;;;;;;;;;5137340;27;924;-67
2023/04/17 16:28:32;;;;;;;;;;;;;;;;;;5137142;27;912;-67
2023/04/17 16:30:58;;;;;;;;;;;;;;;;;;5119089;27;1309;-67
2023/04/17 16:33:23;;;;;;;;;;;;;;;;;;5118270;27;864;-67
2023/04/17 16:35:48;;;;;;;;;;;;;;;;;;5118768;27;979;-67
2023/04/17 16:38:14;;;;;;;;;;;;;;;;;;5118081;27;1914;-67
2023/04/17 16:40:39;;;;;;;;;;;;;;;;;;5117675;27;1227;-67
2023/04/17 16:43:04;;;;;;;;;;;;;;;;;;5136437;27;867;-68
2023/04/17 16:45:30;;;;;;;;;;;;;;;;;;5136515;27;912;-67
2023/04/17 16:47:55;;;;;;;;;;;;;;;;;;5136240;27;997;-67
2023/04/17 16:50:20;;;;;;;;;;;;;;;;;;5136440;27;1052;-67
2023/04/17 16:52:48;;;;;;;;;;;;;;;;;;5136052;27;1269;-67
2023/04/17 16:55:13;;;;;;;;;;;;;;;;;;5136667;27;880;-67
2023/04/17 16:57:41;;;;;;;;;;;;;;;;;;5136241;27;1982;-67
2023/04/17 17:00:08;;;;;;;;;;;;;;;;;;5136114;27;930;-67
2023/04/17 17:02:33;;;;;;;;;;;;;;;;;;5117854;27;1328;-67
2023/04/17 17:04:58;;;;;;;;;;;;;;;;;;5136762;27;848;-65